Time;durP1;ratioP1;P1;durP2;ratioP2;P2;SDS_P1;SDS_P2;PMS_P1;PMS_P2;Temp;Humidity;BMP_temperature;BMP_pressure;BME280_temperature;BME280_humidity;BME280_pressure;Samples;Min_cycle;Max_cycle;Signal;HPM_P1;HPM_P2
2022/05/09 00:00:07;;;;;;;5.37;1.87;;;;;;;7.06;100.00;102260.53;7395066;19;20403;-60
2022/05/09 00:02:38;;;;;;;5.70;2.50;;;;;;;7.03;100.00;102255.16;7371683;19;20379;-61
2022/05/09 00:05:09;;;;;;;7.87;3.20;;;;;;;7.10;100.00;102226.66;7393379;19;20411;-60
2022/05/09 00:07:39;;;;;;;7.70;2.47;;;;;;;7.14;100.00;102222.66;7386934;19;20388;-60
2022/05/09 00:10:10;;;;;;;8.50;3.73;;;;;;;7.12;100.00;102203.63;7399981;19;20748;-60
2022/05/09 00:12:39;;;;;;;14.67;3.57;;;;;;;7.00;100.00;102193.31;7391614;19;20383;-60
2022/05/09 00:15:13;;;;;;;11.20;3.60;;;;;;;7.01;100.00;102184.81;7393988;19;20411;-60
2022/05/09 00:17:45;;;;;;;10.10;3.60;;;;;;;6.91;100.00;102183.19;7381093;19;20455;-59
2022/05/09 00:20:15;;;;;;;8.40;3.07;;;;;;;6.85;100.00;102192.97;7396487;19;20414;-59
2022/05/09 00:22:50;;;;;;;8.03;3.13;;;;;;;6.74;100.00;102184.44;7390596;19;20392;-60
2022/05/09 00:25:21;;;;;;;7.93;2.80;;;;;;;6.67;100.00;102187.28;7395022;19;20430;-60
2022/05/09 00:27:50;;;;;;;12.60;2.93;;;;;;;6.70;100.00;102185.84;7389202;19;20388;-61
2022/05/09 00:30:24;;;;;;;6.20;2.23;;;;;;;6.70;100.00;102192.63;7396334;19;20725;-57
2022/05/09 00:32:53;;;;;;;14.97;2.80;;;;;;;6.64;100.00;102197.28;7391365;19;21519;-60
2022/05/09 00:35:22;;;;;;;6.67;2.57;;;;;;;6.60;100.00;102191.91;7393903;19;20423;-60
2022/05/09 00:37:52;;;;;;;5.63;2.40;;;;;;;6.54;100.00;102201.69;7392056;19;20723;-60
2022/05/09 00:40:22;;;;;;;5.60;2.30;;;;;;;6.54;100.00;102195.63;7396595;19;20380;-60
2022/05/09 00:42:53;;;;;;;9.63;3.07;;;;;;;6.47;100.00;102200.25;7389092;19;20399;-59
2022/05/09 00:45:27;;;;;;;7.80;3.10;;;;;;;6.45;100.00;102200.91;7394970;19;20423;-60
2022/05/09 00:47:56;;;;;;;9.53;3.20;;;;;;;6.41;100.00;102196.31;7391567;19;20411;-60
2022/05/09 00:50:29;;;;;;;10.00;3.37;;;;;;;6.41;100.00;102183.50;7396472;19;20379;-59
2022/05/09 00:53:01;;;;;;;8.47;3.50;;;;;;;6.43;100.00;102176.81;7388122;19;20406;-59
2022/05/09 00:55:40;;;;;;;13.70;3.70;;;;;;;6.43;100.00;102164.00;7394104;19;20792;-60
2022/05/09 00:58:12;;;;;;;8.03;3.27;;;;;;;6.33;100.00;102153.00;7391594;19;20393;-59
2022/05/09 01:00:46;;;;;;;11.10;4.23;;;;;;;6.20;100.00;102138.28;7396022;19;20387;-60
2022/05/09 01:03:19;;;;;;;12.50;3.50;;;;;;;6.10;100.00;102116.91;7392316;19;20967;-60
2022/05/09 01:05:51;;;;;;;9.23;3.43;;;;;;;5.98;100.00;102109.97;7394132;19;20934;-60
2022/05/09 01:08:21;;;;;;;10.33;3.40;;;;;;;5.89;100.00;102101.53;7382840;19;20403;-60
2022/05/09 01:10:51;;;;;;;12.00;4.50;;;;;;;5.78;100.00;102091.28;7395972;19;20396;-59
2022/05/09 01:13:22;;;;;;;10.33;3.23;;;;;;;5.70;100.00;102069.28;7390181;19;20423;-59
2022/05/09 01:15:55;;;;;;;10.33;3.93;;;;;;;5.75;100.00;102069.66;7393546;19;20405;-58
2022/05/09 01:18:25;;;;;;;10.20;3.77;;;;;;;5.66;100.00;102059.56;7386464;19;20409;-60
2022/05/09 01:20:54;;;;;;;9.60;3.90;;;;;;;5.64;100.00;102048.28;7395266;19;20386;-60
2022/05/09 01:23:26;;;;;;;11.13;4.27;;;;;;;5.66;100.00;102033.94;7386071;19;20425;-58
2022/05/09 01:25:57;;;;;;;17.90;6.50;;;;;;;5.67;100.00;102010.13;7394355;19;20452;-59
2022/05/09 01:28:27;;;;;;;9.97;4.90;;;;;;;5.60;100.00;101987.34;7387856;19;20385;-59
2022/05/09 01:30:58;;;;;;;14.20;5.23;;;;;;;5.53;100.00;101966.38;7395843;19;20389;-56
2022/05/09 01:33:31;;;;;;;9.87;3.77;;;;;;;5.46;100.00;101958.97;7362935;19;20743;-60
2022/05/09 01:36:04;;;;;;;12.40;4.07;;;;;;;5.47;100.00;101950.50;7393175;19;20472;-60
2022/05/09 01:38:42;;;;;;;12.20;4.50;;;;;;;5.42;100.00;101930.44;7388113;19;20768;-59
2022/05/09 01:41:11;;;;;;;9.20;4.00;;;;;;;5.39;100.00;101918.28;7392216;19;20929;-60
2022/05/09 01:43:42;;;;;;;7.27;3.73;;;;;;;5.37;100.00;101914.66;7388335;19;20446;-59
2022/05/09 01:46:15;;;;;;;10.70;4.00;;;;;;;5.33;100.00;101910.09;7394053;19;20430;-60
2022/05/09 01:51:27;;;;;;;11.40;4.20;;;;;;;5.37;100.00;101896.75;7394691;19;20384;-59
2022/05/09 01:54:00;;;;;;;9.17;3.50;;;;;;;5.41;100.00;101888.56;7365245;19;20395;-60
2022/05/09 01:56:32;;;;;;;9.90;4.27;;;;;;;5.38;100.00;101894.31;7392751;19;20499;-60
2022/05/09 01:59:02;;;;;;;11.93;3.77;;;;;;;5.33;100.00;101890.50;7390024;19;20425;-61
2022/05/09 02:01:33;;;;;;;7.80;3.73;;;;;;;5.30;100.00;101885.16;7393790;19;20395;-60
2022/05/09 02:04:02;;;;;;;12.40;3.97;;;;;;;5.25;100.00;101882.22;7377262;19;21015;-60
2022/05/09 02:06:32;;;;;;;12.63;3.63;;;;;;;5.22;100.00;101879.41;7392509;19;20427;-61
2022/05/09 02:09:04;;;;;;;6.67;3.60;;;;;;;5.22;100.00;101876.84;7388463;19;20420;-60
2022/05/09 02:11:34;;;;;;;8.87;4.23;;;;;;;5.16;100.00;101873.78;7393268;19;20390;-60
2022/05/09 02:14:04;;;;;;;9.50;3.93;;;;;;;5.18;100.00;101874.78;7364544;19;20399;-60
2022/05/09 02:16:34;;;;;;;10.13;4.10;;;;;;;5.19;100.00;101861.25;7392019;19;20942;-60
2022/05/09 02:19:04;;;;;;;9.77;3.17;;;;;;;5.11;100.00;101863.16;7388555;19;20453;-61
2022/05/09 02:21:34;;;;;;;7.40;3.50;;;;;;;5.09;100.00;101863.81;7398029;19;20396;-59
2022/05/09 02:24:06;;;;;;;9.43;4.30;;;;;;;5.09;100.00;101874.91;7365009;19;20419;-60
2022/05/09 02:26:37;;;;;;;13.07;4.00;;;;;;;5.06;100.00;101876.34;7392205;19;20395;-60
2022/05/09 02:29:07;;;;;;;9.13;3.30;;;;;;;5.07;100.00;101878.16;7359746;19;20451;-59
2022/05/09 02:31:36;;;;;;;8.37;3.63;;;;;;;5.14;100.00;101880.44;7393180;19;20916;-60
2022/05/09 02:34:06;;;;;;;9.73;3.87;;;;;;;5.31;100.00;101850.19;7364994;19;20435;-60
2022/05/09 02:36:35;;;;;;;9.20;4.10;;;;;;;5.58;100.00;101822.47;7391442;19;20427;-59
2022/05/09 02:39:08;;;;;;;7.20;3.03;;;;;;;5.74;100.00;101809.22;7388366;19;20435;-57
2022/05/09 02:41:37;;;;;;;13.00;4.10;;;;;;;5.66;100.00;101821.41;7393055;19;20395;-60
2022/05/09 02:44:08;;;;;;;7.27;3.40;;;;;;;5.68;100.00;101822.41;7386548;19;20403;-60
2022/05/09 02:46:39;;;;;;;9.77;3.53;;;;;;;5.72;100.00;101821.88;7391412;19;20449;-59
2022/05/09 02:49:08;;;;;;;6.50;3.37;;;;;;;5.64;100.00;101839.19;7387925;19;20412;-60
2022/05/09 02:51:38;;;;;;;10.53;4.00;;;;;;;5.64;100.00;101853.69;7395879;19;20391;-57
2022/05/09 02:54:10;;;;;;;10.93;3.30;;;;;;;5.48;100.00;101869.50;7371592;19;20458;-56
2022/05/09 02:56:39;;;;;;;8.93;3.70;;;;;;;5.57;100.00;101859.06;7397525;19;20420;-58
2022/05/09 02:59:09;;;;;;;9.60;3.80;;;;;;;5.68;100.00;101863.38;7395129;19;20963;-60
2022/05/09 03:01:38;;;;;;;9.90;3.60;;;;;;;5.42;100.00;101899.72;7400015;19;20389;-60
2022/05/09 03:06:50;;;;;;;12.73;4.13;;;;;;;5.65;100.00;101892.19;7400002;19;20725;-59
2022/05/09 03:09:22;;;;;;;7.33;3.40;;;;;;;5.64;100.00;101900.66;7370750;19;20423;-60
2022/05/09 03:11:51;;;;;;;11.13;3.60;;;;;;;5.56;100.00;101914.50;7400116;19;20392;-55
2022/05/09 03:14:21;;;;;;;11.73;3.83;;;;;;;5.73;100.00;101900.50;7363411;19;20399;-59
2022/05/09 03:16:50;;;;;;;8.30;4.13;;;;;;;5.63;100.00;101921.00;7399743;19;20404;-60
2022/05/09 03:19:21;;;;;;;10.47;4.10;;;;;;;5.78;100.00;101912.00;7368720;19;20851;-59
2022/05/09 03:21:50;;;;;;;14.10;4.20;;;;;;;5.67;100.00;101925.63;7399510;19;20388;-57
2022/05/09 03:24:22;;;;;;;11.53;4.10;;;;;;;5.54;100.00;101929.75;7392974;19;20765;-60
2022/05/09 03:26:52;;;;;;;9.03;3.50;;;;;;;5.44;100.00;101934.00;7399815;19;20401;-56
2022/05/09 03:29:24;;;;;;;25.17;10.03;;;;;;;5.51;100.00;101926.03;7362459;19;20394;-57
2022/05/09 03:31:53;;;;;;;10.27;4.70;;;;;;;5.58;100.00;101917.22;7399930;19;20479;-57
2022/05/09 03:34:23;;;;;;;24.63;8.67;;;;;;;5.55;100.00;101928.09;7391916;19;20518;-57
2022/05/09 03:36:54;;;;;;;20.77;7.40;;;;;;;5.46;100.00;101930.78;7399554;19;20396;-60
2022/05/09 03:39:26;;;;;;;20.43;8.93;;;;;;;5.36;100.00;101921.47;7369090;19;20502;-58
2022/05/09 03:41:56;;;;;;;13.43;5.00;;;;;;;5.51;100.00;101905.56;7398883;19;20395;-58
2022/05/09 03:44:25;;;;;;;9.63;4.30;;;;;;;5.80;100.00;101902.78;7364484;19;20380;-56
2022/05/09 03:46:54;;;;;;;11.47;5.00;;;;;;;5.82;100.00;101910.59;7399071;19;20394;-59
2022/05/09 03:49:24;;;;;;;8.57;3.63;;;;;;;5.70;100.00;101936.13;7371554;19;20397;-57
2022/05/09 03:51:54;;;;;;;8.97;3.50;;;;;;;5.80;100.00;101924.94;7399241;19;21040;-57
2022/05/09 03:54:26;;;;;;;6.67;3.40;;;;;;;5.74;100.00;101938.13;7390334;19;20419;-59
2022/05/09 03:56:56;;;;;;;9.47;3.50;;;;;;;5.91;100.00;101928.34;7398911;19;20389;-59
2022/05/09 03:59:25;;;;;;;7.80;3.47;;;;;;;5.84;100.00;101941.44;7391961;19;20416;-58
2022/05/09 04:01:56;;;;;;;7.87;3.23;;;;;;;5.61;100.00;101948.16;7398639;19;20385;-56
2022/05/09 04:04:26;;;;;;;9.20;3.50;;;;;;;5.71;100.00;101939.56;7390646;19;20415;-57
2022/05/09 04:06:55;;;;;;;9.10;3.40;;;;;;;5.70;100.00;101938.69;7398224;19;20455;-59
2022/05/09 04:09:27;;;;;;;11.57;3.90;;;;;;;5.62;100.00;101950.84;7355370;19;20402;-58
2022/05/09 04:11:57;;;;;;;7.43;3.30;;;;;;;5.57;100.00;101943.56;7398413;19;20387;-58
2022/05/09 04:17:10;;;;;;;8.10;3.60;;;;;;;5.65;100.00;101939.97;7397906;19;20374;-58
2022/05/09 04:19:40;;;;;;;11.63;4.17;;;;;;;5.60;100.00;101943.81;7369344;19;20995;-59
2022/05/09 04:22:10;;;;;;;10.33;3.53;;;;;;;5.60;100.00;101946.38;7402532;19;20497;-58
2022/05/09 04:24:43;;;;;;;12.10;4.30;;;;;;;5.44;100.00;101945.13;7389873;19;20415;-59
2022/05/09 04:27:13;;;;;;;8.20;3.73;;;;;;;5.53;100.00;101940.75;7398081;19;20404;-58
2022/05/09 04:29:42;;;;;;;6.73;3.37;;;;;;;5.66;100.00;101937.50;7361527;19;20502;-56
2022/05/09 04:32:12;;;;;;;10.30;3.70;;;;;;;5.69;100.00;101936.88;7397565;19;20385;-58
2022/05/09 04:34:41;;;;;;;17.17;4.10;;;;;;;5.73;100.00;101933.78;7368194;19;20423;-57
2022/05/09 04:37:10;;;;;;;11.97;3.80;;;;;;;5.76;100.00;101946.84;7397595;19;20364;-55
2022/05/09 04:39:43;;;;;;;10.77;3.27;;;;;;;5.73;100.00;101951.72;7391709;19;20404;-58
2022/05/09 04:42:14;;;;;;;8.10;2.80;;;;;;;5.80;100.00;101950.56;7397479;19;20368;-59
2022/05/09 04:44:44;;;;;;;8.27;3.37;;;;;;;5.88;100.00;101953.72;7390412;19;20432;-55
2022/05/09 04:47:13;;;;;;;16.80;4.00;;;;;;;6.00;100.00;101954.69;7399772;19;20411;-57
2022/05/09 04:49:43;;;;;;;9.33;3.90;;;;;;;6.05;100.00;101960.25;7390227;19;20423;-56
2022/05/09 04:52:12;;;;;;;10.10;3.60;;;;;;;6.21;100.00;101965.78;7397111;19;20390;-57
2022/05/09 04:54:44;;;;;;;8.43;3.73;;;;;;;6.55;100.00;101956.38;7388782;19;20420;-59
2022/05/09 04:57:14;;;;;;;12.57;3.53;;;;;;;7.38;100.00;101956.63;7396897;19;20409;-57
2022/05/09 04:59:43;;;;;;;9.17;3.63;;;;;;;7.83;100.00;101982.09;7367772;19;20397;-60
2022/05/09 05:02:13;;;;;;;12.60;3.47;;;;;;;7.90;100.00;102020.31;7398911;19;20391;-61
2022/05/09 05:04:42;;;;;;;27.97;10.53;;;;;;;7.60;100.00;102055.81;7386810;19;20450;-59
2022/05/09 05:07:12;;;;;;;46.47;20.60;;;;;;;7.80;100.00;102069.25;7396351;19;20488;-59
2022/05/09 05:09:44;;;;;;;31.13;14.43;;;;;;;7.84;100.00;102089.22;7366777;19;20395;-58
2022/05/09 05:12:14;;;;;;;30.57;14.17;;;;;;;7.89;100.00;102093.03;7396367;19;20384;-58
2022/05/09 05:14:44;;;;;;;37.33;14.87;;;;;;;7.97;100.00;102099.66;7365280;19;20439;-57
2022/05/09 05:17:16;;;;;;;20.73;8.80;;;;;;;8.40;100.00;102106.13;7395812;19;20376;-57
2022/05/09 05:19:47;;;;;;;37.67;16.17;;;;;;;8.53;100.00;102127.63;7389557;19;20407;-56
2022/05/09 05:22:17;;;;;;;38.20;18.80;;;;;;;8.50;100.00;102134.31;7395905;19;20392;-59
2022/05/09 05:24:52;;;;;;;11.93;4.17;;;;;;;8.06;100.00;102150.84;7363751;19;20431;-57
2022/05/09 05:27:23;;;;;;;42.57;19.00;;;;;;;8.03;100.00;102154.84;7395856;19;20387;-55
2022/05/09 05:29:56;;;;;;;33.47;16.67;;;;;;;8.20;100.00;102151.88;7388417;19;20426;-58
2022/05/09 05:32:28;;;;;;;35.50;17.80;;;;;;;8.15;100.00;102160.91;7395623;19;20409;-56
2022/05/09 05:34:58;;;;;;;16.87;7.53;;;;;;;8.18;100.00;102160.25;7382947;19;20427;-60
2022/05/09 05:37:27;;;;;;;25.10;12.47;;;;;;;8.07;100.00;102174.88;7395356;19;20388;-58
2022/05/09 05:40:00;;;;;;;24.00;11.77;;;;;;;8.14;100.00;102183.97;7388958;19;20953;-60
2022/05/09 05:42:36;;;;;;;28.30;12.27;;;;;;;8.32;100.00;102184.41;7394899;19;20402;-60
2022/05/09 05:45:06;;;;;;;9.20;3.33;;;;;;;8.32;100.00;102185.28;7391646;19;20421;-57
2022/05/09 05:47:40;;;;;;;14.30;4.57;;;;;;;8.35;100.00;102194.91;7366743;19;20394;-61
2022/05/09 05:50:12;;;;;;;19.00;8.80;;;;;;;8.45;100.00;102207.69;7393320;19;20386;-58
2022/05/09 05:52:43;;;;;;;17.97;5.53;;;;;;;8.45;100.00;102210.25;7368883;19;20401;-57
2022/05/09 05:55:18;;;;;;;31.17;14.70;;;;;;;8.69;100.00;102202.56;7391486;19;20414;-60
2022/05/09 05:57:49;;;;;;;11.30;4.53;;;;;;;8.86;100.00;102205.47;7362195;19;20383;-56
2022/05/09 06:00:21;;;;;;;16.17;5.70;;;;;;;8.88;100.00;102220.22;7392774;19;20394;-59
2022/05/09 06:02:52;;;;;;;23.07;10.57;;;;;;;9.02;100.00;102218.66;7387891;19;20395;-60
2022/05/09 06:05:22;;;;;;;17.37;6.57;;;;;;;9.03;100.00;102233.31;7392099;19;20419;-55
2022/05/09 06:07:55;;;;;;;15.80;6.10;;;;;;;9.02;100.00;102234.09;7387040;19;20392;-58
2022/05/09 06:10:30;;;;;;;13.10;3.20;;;;;;;9.17;100.00;102238.53;7394354;19;20387;-60
2022/05/09 06:13:00;;;;;;;12.17;3.47;;;;;;;9.18;100.00;102235.22;7385901;19;21140;-58
2022/05/09 06:15:32;;;;;;;12.10;3.70;;;;;;;9.19;100.00;102244.72;7392704;19;20408;-60
2022/05/09 06:18:03;;;;;;;8.03;3.13;;;;;;;9.20;100.00;102241.34;7387651;19;20420;-60
2022/05/09 06:20:35;;;;;;;10.30;2.97;;;;;;;9.27;100.00;102251.31;7394028;19;20388;-58
2022/05/09 06:23:05;;;;;;;12.70;5.83;;;;;;;9.38;100.00;102253.75;7380654;19;20413;-59
2022/05/09 06:25:38;;;;;;;12.10;2.80;;;;;;;9.48;100.00;102248.44;7392165;19;20422;-60
2022/05/09 06:28:09;;;;;;;13.93;3.03;;;;;;;9.58;100.00;102252.56;7400430;19;20435;-58
2022/05/09 06:30:38;;;;;;;15.30;3.70;;;;;;;9.59;100.00;102260.41;7409578;19;20415;-57
2022/05/09 06:33:09;;;;;;;8.17;2.17;;;;;;;9.69;100.00;102256.78;7378431;19;20740;-60
2022/05/09 06:35:44;;;;;;;10.10;3.53;;;;;;;9.74;100.00;102259.66;7407388;19;20417;-60
2022/05/09 06:38:16;;;;;;;17.57;4.97;;;;;;;9.82;100.00;102268.84;7404573;19;20422;-60
2022/05/09 06:40:49;;;;;;;16.33;3.23;;;;;;;9.91;100.00;102267.69;7407330;19;20403;-59
2022/05/09 06:43:19;;;;;;;12.17;3.33;;;;;;;10.06;100.00;102262.69;7401983;19;20447;-57
2022/05/09 06:45:49;;;;;;;9.77;2.90;;;;;;;10.11;100.00;102272.50;7404441;19;21126;-59
2022/05/09 06:48:19;;;;;;;13.53;3.07;;;;;;;10.24;100.00;102268.19;7401735;19;20458;-59
2022/05/09 06:50:49;;;;;;;15.57;2.90;;;;;;;10.30;100.00;102278.91;7407542;19;20398;-58
2022/05/09 06:53:18;;;;;;;10.77;2.50;;;;;;;10.42;100.00;102283.13;7397757;19;20414;-59
2022/05/09 06:55:52;;;;;;;10.20;2.70;;;;;;;10.36;100.00;102292.22;7404873;19;20431;-59
2022/05/09 06:58:24;;;;;;;10.93;2.73;;;;;;;10.36;100.00;102293.94;7404384;19;20494;-60
2022/05/09 07:00:55;;;;;;;8.97;3.40;;;;;;;10.49;100.00;102298.25;7408899;19;20391;-59
2022/05/09 07:03:25;;;;;;;12.43;3.13;;;;;;;10.59;100.00;102292.91;7399350;19;20988;-60
2022/05/09 07:05:56;;;;;;;9.83;3.97;;;;;;;10.75;100.00;102296.47;7404602;19;20829;-59
2022/05/09 07:08:32;;;;;;;19.73;4.47;;;;;;;10.91;100.00;102295.81;7396953;19;20415;-60
2022/05/09 07:11:06;;;;;;;10.47;4.43;;;;;;;11.06;100.00;102301.97;7405097;19;20413;-60
2022/05/09 07:13:43;;;;;;;11.20;3.10;;;;;;;10.96;100.00;102304.75;7400131;19;20432;-60
2022/05/09 07:16:13;;;;;;;13.77;2.90;;;;;;;11.13;100.00;102307.53;7404323;19;20936;-58
2022/05/09 07:18:43;;;;;;;16.60;4.93;;;;;;;11.28;100.00;102307.63;7399382;19;20416;-58
2022/05/09 07:21:12;;;;;;;9.73;3.03;;;;;;;11.40;100.00;102305.81;7403129;19;20401;-60
2022/05/09 07:23:45;;;;;;;8.10;3.00;;;;;;;11.33;100.00;102307.09;7397087;19;20503;-58
2022/05/09 07:26:17;;;;;;;18.57;4.30;;;;;;;11.37;100.00;102303.03;7403558;19;20496;-59
2022/05/09 07:28:49;;;;;;;14.07;5.40;;;;;;;11.59;100.00;102306.97;7398803;19;20443;-58
2022/05/09 07:31:19;;;;;;;8.10;2.97;;;;;;;11.57;100.00;102312.03;7405532;19;20398;-59
2022/05/09 07:33:48;;;;;;;12.87;4.50;;;;;;;11.60;100.00;102311.34;7398109;19;20414;-60
2022/05/09 07:36:18;;;;;;;11.40;2.80;;;;;;;11.87;100.00;102314.75;7403857;19;20406;-59
2022/05/09 07:38:47;;;;;;;12.83;4.67;;;;;;;12.06;100.00;102307.22;7391638;19;20431;-60
2022/05/09 07:41:19;;;;;;;10.80;2.40;;;;;;;11.86;100.00;102314.63;7398337;19;20384;-60
2022/05/09 07:43:50;;;;;;;10.87;3.57;;;;;;;11.97;100.00;102323.06;7390904;19;20430;-59
2022/05/09 07:46:19;;;;;;;7.80;2.67;;;;;;;12.15;100.00;102329.38;7395436;19;20438;-60
2022/05/09 07:49:09;;;;;;;12.30;3.27;;;;;;;12.17;100.00;102325.97;7391947;19;20415;-58
2022/05/09 07:51:39;;;;;;;8.13;2.27;;;;;;;12.23;100.00;102332.44;7397998;19;20388;-58
2022/05/09 07:54:09;;;;;;;20.73;8.20;;;;;;;12.31;100.00;102332.00;7382471;19;20415;-60
2022/05/09 07:56:46;;;;;;;74.70;40.87;;;;;;;12.45;100.00;102325.94;7395917;19;20420;-59
2022/05/09 07:59:17;;;;;;;11.37;2.90;;;;;;;12.69;100.00;102317.81;7370119;19;20813;-59
2022/05/09 08:01:47;;;;;;;9.83;3.67;;;;;;;12.76;100.00;102326.84;7398045;19;20966;-58
2022/05/09 08:04:17;;;;;;;9.83;2.90;;;;;;;12.61;100.00;102329.44;7373428;19;20437;-60
2022/05/09 08:06:46;;;;;;;6.77;3.03;;;;;;;12.69;100.00;102328.19;7396443;19;20420;-58
2022/05/09 08:09:16;;;;;;;8.17;3.37;;;;;;;12.50;100.00;102336.56;7370255;19;20427;-58
2022/05/09 08:11:48;;;;;;;7.77;2.60;;;;;;;12.81;100.00;102330.56;7397415;19;20401;-58
2022/05/09 08:14:17;;;;;;;13.93;4.40;;;;;;;13.16;100.00;102330.81;7391195;19;20425;-59
2022/05/09 08:16:47;;;;;;;11.33;3.10;;;;;;;13.24;100.00;102329.56;7395230;19;20427;-59
2022/05/09 08:19:17;;;;;;;8.13;2.80;;;;;;;13.44;100.00;102332.34;7392306;19;20416;-58
2022/05/09 08:21:49;;;;;;;14.00;4.53;;;;;;;13.31;100.00;102331.69;7397682;19;20724;-59
2022/05/09 08:24:19;;;;;;;5.90;2.30;;;;;;;13.40;100.00;102325.19;7372749;19;20466;-59
2022/05/09 08:26:51;;;;;;;7.83;2.90;;;;;;;13.57;100.00;102329.66;7395031;19;20400;-60
2022/05/09 08:29:21;;;;;;;8.87;2.40;;;;;;;13.64;100.00;102326.59;7389917;19;20416;-60
2022/05/09 08:31:50;;;;;;;14.37;5.30;;;;;;;13.74;100.00;102316.72;7397143;19;20479;-60
2022/05/09 08:34:20;;;;;;;11.53;5.40;;;;;;;13.84;100.00;102321.56;7391997;19;20448;-58
2022/05/09 08:36:51;;;;;;;6.33;2.27;;;;;;;13.53;100.00;102325.09;7396987;19;20383;-58
2022/05/09 08:39:20;;;;;;;7.50;2.20;;;;;;;13.47;100.00;102322.16;7391536;19;20412;-55
2022/05/09 08:41:59;;;;;;;9.30;2.40;;;;;;;13.83;100.00;102318.88;7397291;19;20395;-59
2022/05/09 08:44:54;;;;;;;17.67;5.47;;;;;;;14.14;100.00;102328.28;7390674;19;20807;-60
2022/05/09 08:47:32;;;;;;;28.40;13.77;;;;;;;14.06;100.00;102325.31;7396677;19;20400;-57
2022/05/09 08:50:13;;;;;;;39.67;19.37;;;;;;;14.44;100.00;102318.59;7393896;19;20808;-60
2022/05/09 08:52:47;;;;;;;7.30;2.10;;;;;;;14.49;100.00;102317.94;7391728;19;20917;-59
2022/05/09 08:55:19;;;;;;;13.40;3.37;;;;;;;14.50;100.00;102317.13;7394913;19;20811;-57
2022/05/09 08:57:54;;;;;;;25.57;13.50;;;;;;;14.55;100.00;102320.84;7391747;19;20398;-60
2022/05/09 09:00:29;;;;;;;23.40;10.97;;;;;;;14.76;100.00;102309.78;7396513;19;20390;-59
2022/05/09 09:03:03;;;;;;;9.77;2.70;;;;;;;14.73;100.00;102313.09;7365988;19;20406;-60
2022/05/09 09:05:36;;;;;;;29.30;15.60;;;;;;;14.99;100.00;102316.97;7392842;19;20422;-59
2022/05/09 09:08:17;;;;;;;12.80;3.33;;;;;;;14.97;100.00;102313.41;7375642;19;20407;-57
2022/05/09 09:10:51;;;;;;;13.70;3.87;;;;;;;15.11;100.00;102314.09;7395929;19;20726;-58
2022/05/09 09:13:33;;;;;;;14.73;3.83;;;;;;;14.99;100.00;102314.38;7366140;19;20755;-56
2022/05/09 09:16:12;;;;;;;11.33;4.83;;;;;;;15.36;100.00;102314.34;7393228;19;20415;-56
2022/05/09 09:18:54;;;;;;;21.50;9.83;;;;;;;15.43;99.25;102308.59;7365729;19;20448;-58
2022/05/09 09:21:31;;;;;;;18.23;4.53;;;;;;;14.72;100.00;102308.72;7394547;19;20386;-58
2022/05/09 09:24:14;;;;;;;9.97;3.97;;;;;;;14.93;100.00;102306.28;7388326;19;21378;-60
2022/05/09 09:26:51;;;;;;;23.43;10.93;;;;;;;14.87;99.03;102312.91;7392865;19;20438;-56
2022/05/09 09:29:26;;;;;;;7.60;2.50;;;;;;;15.14;95.81;102312.44;7387201;19;20757;-59
2022/05/09 09:32:03;;;;;;;14.80;5.40;;;;;;;15.38;97.22;102297.09;7394896;19;20383;-60
2022/05/09 09:34:36;;;;;;;36.23;16.47;;;;;;;15.75;97.69;102296.19;7389376;19;20451;-60
2022/05/09 09:37:11;;;;;;;16.00;5.77;;;;;;;15.97;94.68;102289.38;7395188;19;20381;-60
2022/05/09 09:39:41;;;;;;;13.10;5.23;;;;;;;15.38;91.32;102287.59;7387009;19;20425;-59
2022/05/09 09:42:11;;;;;;;12.27;4.67;;;;;;;15.61;91.02;102276.47;7395000;19;20399;-60
2022/05/09 09:44:46;;;;;;;18.13;7.50;;;;;;;15.35;94.19;102284.88;7387618;19;20804;-60
2022/05/09 09:47:25;;;;;;;15.10;3.40;;;;;;;15.35;91.08;102287.47;7393130;19;20868;-60
2022/05/09 09:50:19;;;;;;;11.50;2.50;;;;;;;15.27;93.72;102282.72;7393367;19;20432;-59
2022/05/09 09:52:52;;;;;;;17.20;7.73;;;;;;;15.84;95.81;102281.81;7387879;19;20456;-61
2022/05/09 09:55:27;;;;;;;12.50;4.77;;;;;;;16.27;93.83;102278.50;7392931;19;20445;-60
2022/05/09 09:57:57;;;;;;;23.07;9.17;;;;;;;16.39;92.68;102278.13;7387494;19;20923;-60
2022/05/09 10:00:34;;;;;;;25.60;10.70;;;;;;;16.58;91.92;102284.09;7393045;19;20406;-60
2022/05/09 10:03:21;;;;;;;35.73;16.77;;;;;;;16.73;92.11;102278.63;7387619;19;20481;-60
2022/05/09 10:05:52;;;;;;;21.50;7.23;;;;;;;16.83;90.39;102274.69;7391021;19;20439;-60
2022/05/09 10:08:33;;;;;;;12.63;2.60;;;;;;;16.81;87.33;102255.50;7387244;19;20497;-59
2022/05/09 10:11:07;;;;;;;9.93;2.60;;;;;;;16.60;87.67;102262.50;7394005;19;20963;-59
2022/05/09 10:13:41;;;;;;;10.97;2.90;;;;;;;16.58;87.97;102269.38;7389525;19;20443;-59
2022/05/09 10:16:15;;;;;;;15.13;4.23;;;;;;;16.36;87.35;102274.50;7395008;19;20425;-60
2022/05/09 10:18:46;;;;;;;19.70;4.40;;;;;;;15.82;88.86;102257.41;7388146;19;20975;-59
2022/05/09 10:26:53;;;;;;;12.83;2.50;;;;;;;16.40;86.93;102252.97;7391717;19;20485;-59
2022/05/09 10:29:25;;;;;;;11.67;2.63;;;;;;;16.26;84.50;102250.66;7384129;19;20446;-60
2022/05/09 10:32:00;;;;;;;13.73;2.37;;;;;;;16.01;79.62;102248.75;7393257;19;20397;-59
2022/05/09 10:34:43;;;;;;;26.17;7.37;;;;;;;15.84;73.91;102250.59;7387765;19;20955;-59
2022/05/09 10:37:16;;;;;;;62.63;11.70;;;;;;;16.09;75.12;102244.75;7393189;19;20408;-59
2022/05/09 10:39:49;;;;;;;12.83;3.57;;;;;;;16.18;75.31;102241.66;7390596;19;20810;-60
2022/05/09 10:42:33;;;;;;;14.80;4.13;;;;;;;15.90;72.06;102243.06;7392964;19;20404;-60
2022/05/09 10:45:09;;;;;;;8.80;2.40;;;;;;;16.04;74.47;102239.34;7390884;19;20430;-60
2022/05/09 10:47:45;;;;;;;13.33;2.37;;;;;;;16.42;74.90;102240.91;7385609;19;20800;-60
2022/05/09 10:50:19;;;;;;;7.17;2.10;;;;;;;16.64;77.59;102239.16;7392323;19;20390;-60
2022/05/09 10:52:59;;;;;;;12.93;3.17;;;;;;;17.12;78.42;102241.94;7385987;19;20924;-60
2022/05/09 10:55:34;;;;;;;7.33;2.27;;;;;;;17.24;77.52;102232.81;7390647;19;20416;-60
2022/05/09 10:58:06;;;;;;;10.17;2.43;;;;;;;17.64;63.90;102226.44;7385891;19;20416;-60
2022/05/09 11:00:37;;;;;;;6.53;2.00;;;;;;;17.79;52.87;102227.84;7393898;19;20401;-61
2022/05/09 11:03:18;;;;;;;6.87;1.90;;;;;;;17.44;51.18;102222.25;7386589;19;20432;-60
2022/05/09 11:06:10;;;;;;;7.53;2.33;;;;;;;16.78;48.36;102222.38;7390242;19;20481;-59
2022/05/09 11:09:01;;;;;;;11.60;2.13;;;;;;;17.02;53.46;102205.91;7385359;19;20425;-60
2022/05/09 11:11:36;;;;;;;7.40;2.60;;;;;;;17.62;53.50;102195.91;7391840;19;20403;-60
2022/05/09 11:14:17;;;;;;;5.50;2.00;;;;;;;17.56;53.52;102201.81;7392159;19;20851;-59
2022/05/09 11:17:04;;;;;;;7.43;1.90;;;;;;;17.28;55.27;102190.38;7396637;19;20489;-60
2022/05/09 11:19:46;;;;;;;7.37;2.80;;;;;;;17.59;50.83;102196.69;7394216;19;20467;-60
2022/05/09 11:22:24;;;;;;;7.37;2.20;;;;;;;17.31;47.07;102190.50;7399288;19;20457;-60
2022/05/09 11:25:04;;;;;;;9.90;2.53;;;;;;;17.84;49.44;102200.16;7392619;19;20604;-60
2022/05/09 11:27:49;;;;;;;9.37;2.50;;;;;;;18.13;48.92;102202.91;7391053;19;20395;-61
2022/05/09 11:30:34;;;;;;;7.07;2.20;;;;;;;17.56;44.59;102186.16;7398779;19;20404;-60
2022/05/09 11:33:17;;;;;;;11.10;2.60;;;;;;;18.10;46.50;102187.13;7392966;19;20424;-59
2022/05/09 11:35:51;;;;;;;7.67;2.03;;;;;;;18.14;41.96;102175.97;7400133;19;20432;-60
2022/05/09 11:38:52;;;;;;;20.70;5.90;;;;;;;17.39;42.59;102170.78;7392154;19;20427;-60
2022/05/09 11:41:33;;;;;;;14.43;3.50;;;;;;;17.95;43.25;102172.69;7396454;19;20422;-60
2022/05/09 11:44:15;;;;;;;7.57;2.70;;;;;;;18.15;44.43;102175.13;7395452;19;20489;-60
2022/05/09 11:46:52;;;;;;;11.13;2.50;;;;;;;18.30;40.37;102168.63;7395724;19;20419;-60
2022/05/09 11:49:41;;;;;;;10.23;2.20;;;;;;;18.55;43.06;102166.81;7392542;19;20412;-60
2022/05/09 11:52:21;;;;;;;9.47;2.63;;;;;;;18.75;43.59;102167.41;7398312;19;20390;-61
2022/05/09 11:54:51;;;;;;;5.73;2.10;;;;;;;18.96;46.63;102154.06;7388727;19;20754;-59